Time;durP1;ratioP1;P1;durP2;ratioP2;P2;SDS_P1;SDS_P2;PMS_P1;PMS_P2;Temp;Humidity;BMP_temperature;BMP_pressure;BME280_temperature;BME280_humidity;BME280_pressure;Samples;Min_cycle;Max_cycle;Signal;HPM_P1;HPM_P2
2023/02/20 00:01:54;;;;;;;4.00;3.37;;;8.30;99.90;;;;;;4976896;28;20212;-69
2023/02/20 00:04:20;;;;;;;4.97;4.13;;;8.40;99.90;;;;;;4974347;28;20196;-69
2023/02/20 00:06:45;;;;;;;5.07;3.70;;;8.40;99.90;;;;;;4974476;28;20447;-70
2023/02/20 00:09:12;;;;;;;10.57;3.97;;;8.40;99.90;;;;;;4973873;28;20180;-70
2023/02/20 00:11:37;;;;;;;5.70;4.17;;;8.40;99.90;;;;;;4974335;28;20207;-69
2023/02/20 00:14:03;;;;;;;5.13;4.67;;;8.50;99.90;;;;;;4976094;28;20529;-70
2023/02/20 00:16:28;;;;;;;8.07;4.70;;;8.40;99.90;;;;;;4973538;28;20856;-69
2023/02/20 00:18:54;;;;;;;6.67;4.37;;;8.40;99.90;;;;;;4974231;28;20196;-69
2023/02/20 00:21:19;;;;;;;6.67;4.07;;;8.40;99.90;;;;;;4974504;28;20201;-69
2023/02/20 00:23:45;;;;;;;7.23;4.10;;;8.40;99.90;;;;;;4974029;28;20184;-70
2023/02/20 00:26:12;;;;;;;5.30;4.23;;;8.40;99.90;;;;;;4975032;28;20180;-69
2023/02/20 00:28:42;;;;;;;7.40;4.70;;;8.40;99.90;;;;;;4973167;28;20224;-69
2023/02/20 00:31:12;;;;;;;4.23;3.43;;;8.40;99.90;;;;;;4975138;28;20471;-70
2023/02/20 00:33:38;;;;;;;7.73;5.23;;;8.30;99.90;;;;;;4975036;28;20447;-70
2023/02/20 00:36:04;;;;;;;8.80;4.40;;;8.30;99.90;;;;;;4974556;28;20471;-69
2023/02/20 00:38:30;;;;;;;6.10;4.67;;;8.30;99.90;;;;;;4972690;28;20219;-70
2023/02/20 00:40:55;;;;;;;5.90;4.50;;;8.30;99.90;;;;;;4973640;28;20462;-70
2023/02/20 00:43:21;;;;;;;6.30;4.00;;;8.30;99.90;;;;;;4969344;28;20184;-70
2023/02/20 00:45:47;;;;;;;4.90;3.50;;;8.30;99.90;;;;;;4974322;28;20289;-70
2023/02/20 00:48:12;;;;;;;5.07;4.07;;;8.30;99.90;;;;;;4968923;28;20194;-70
2023/02/20 00:50:38;;;;;;;8.60;4.20;;;8.30;99.90;;;;;;4974243;28;20401;-69
2023/02/20 00:53:03;;;;;;;7.53;4.07;;;8.40;99.90;;;;;;4972778;28;20192;-69
2023/02/20 00:55:29;;;;;;;5.93;3.90;;;8.40;99.90;;;;;;4973068;28;20212;-70
2023/02/20 00:57:54;;;;;;;5.67;4.20;;;8.50;99.90;;;;;;4974348;28;20561;-69
2023/02/20 01:00:29;;;;;;;4.30;3.43;;;8.50;99.90;;;;;;4973206;28;20652;-70
2023/02/20 01:02:55;;;;;;;7.90;4.47;;;8.50;99.90;;;;;;4972425;28;20190;-69
2023/02/20 01:05:21;;;;;;;5.93;4.13;;;8.50;99.90;;;;;;4973975;28;20447;-70
2023/02/20 01:07:46;;;;;;;6.60;4.10;;;8.40;99.90;;;;;;4972911;28;20971;-69
2023/02/20 01:10:13;;;;;;;5.67;3.60;;;8.40;99.90;;;;;;4971466;28;20473;-70
2023/02/20 01:12:38;;;;;;;5.03;4.53;;;8.40;99.90;;;;;;4971468;28;20203;-70
2023/02/20 01:15:06;;;;;;;6.87;4.23;;;8.30;99.90;;;;;;4971574;28;20890;-69
2023/02/20 01:17:32;;;;;;;7.13;4.53;;;8.40;99.90;;;;;;4971123;28;20220;-70
2023/02/20 01:19:58;;;;;;;9.13;4.60;;;8.40;99.90;;;;;;4973294;28;20490;-71
2023/02/20 01:22:23;;;;;;;4.53;4.00;;;8.30;99.90;;;;;;4968440;28;20187;-69
2023/02/20 01:24:49;;;;;;;5.40;4.00;;;8.30;99.90;;;;;;4966448;28;20180;-69
2023/02/20 01:27:15;;;;;;;6.80;4.50;;;8.30;99.90;;;;;;4972809;28;20268;-70
2023/02/20 01:29:40;;;;;;;4.40;3.53;;;8.30;99.90;;;;;;4970947;28;20200;-69
2023/02/20 01:32:06;;;;;;;6.43;4.13;;;8.20;99.90;;;;;;4971859;28;20460;-69
2023/02/20 01:34:32;;;;;;;8.13;5.00;;;8.10;99.90;;;;;;4973293;28;20275;-69
2023/02/20 01:36:57;;;;;;;10.33;4.50;;;8.10;99.90;;;;;;4972994;28;20208;-70
2023/02/20 01:39:29;;;;;;;7.07;3.87;;;8.00;99.90;;;;;;4971780;28;20383;-70
2023/02/20 01:42:02;;;;;;;7.93;5.07;;;8.00;99.90;;;;;;4965140;28;20207;-70
2023/02/20 01:44:36;;;;;;;6.13;5.50;;;8.00;99.90;;;;;;4971636;28;20455;-70
2023/02/20 01:47:15;;;;;;;4.37;3.13;;;8.00;99.90;;;;;;4970393;28;20803;-70
2023/02/20 01:49:54;;;;;;;3.70;3.37;;;8.10;99.90;;;;;;4965631;28;20440;-70
2023/02/20 01:52:29;;;;;;;5.80;3.60;;;8.10;99.90;;;;;;4970691;28;20438;-70
2023/02/20 01:55:01;;;;;;;5.10;4.10;;;8.10;99.90;;;;;;4974352;28;20435;-69
2023/02/20 01:57:30;;;;;;;6.30;3.83;;;8.20;99.90;;;;;;4972655;28;20436;-69
2023/02/20 02:00:01;;;;;;;3.87;3.47;;;8.20;99.90;;;;;;4970977;28;21044;-69
2023/02/20 02:02:32;;;;;;;4.83;3.43;;;8.20;99.90;;;;;;4972131;28;20519;-70
2023/02/20 02:04:57;;;;;;;5.73;4.10;;;8.20;99.90;;;;;;4972301;28;20438;-69
2023/02/20 02:07:23;;;;;;;7.93;3.30;;;8.20;99.90;;;;;;4972227;28;20439;-69
2023/02/20 02:10:01;;;;;;;7.63;4.17;;;8.30;99.90;;;;;;4971988;28;20697;-69
2023/02/20 02:12:27;;;;;;;5.17;3.63;;;8.30;99.90;;;;;;4972828;28;20187;-69
2023/02/20 02:14:52;;;;;;;6.90;3.57;;;8.30;99.90;;;;;;4972285;28;20436;-69
2023/02/20 02:18:15;;;;;;;7.90;3.50;;;8.20;99.90;;;;;;4971753;28;20474;-70
2023/02/20 02:21:11;;;;;;;7.43;3.60;;;8.30;99.90;;;;;;4945079;28;20216;-70
2023/02/20 02:24:04;;;;;;;8.00;4.20;;;8.20;99.90;;;;;;4971450;28;20436;-70
2023/02/20 02:26:45;;;;;;;4.13;3.73;;;8.30;99.90;;;;;;4972028;28;20435;-70
2023/02/20 02:29:41;;;;;;;3.73;3.43;;;8.30;99.90;;;;;;4972928;28;20944;-70
2023/02/20 02:32:42;;;;;;;3.97;3.57;;;8.30;99.90;;;;;;4968197;28;20467;-69
2023/02/20 02:35:28;;;;;;;4.63;3.87;;;8.30;99.90;;;;;;4966394;28;20636;-70
2023/02/20 02:38:03;;;;;;;7.10;4.80;;;8.30;99.90;;;;;;4971926;28;20944;-70
2023/02/20 02:40:56;;;;;;;6.13;3.43;;;8.20;99.90;;;;;;4971809;28;20458;-69
2023/02/20 02:43:30;;;;;;;3.80;3.40;;;8.20;99.90;;;;;;4967750;28;20972;-70
2023/02/20 02:46:05;;;;;;;4.13;3.73;;;8.30;99.90;;;;;;4963251;28;20470;-70
2023/02/20 02:48:44;;;;;;;4.77;3.83;;;8.30;99.90;;;;;;4971211;28;20446;-70
2023/02/20 02:51:18;;;;;;;5.30;3.97;;;8.30;99.90;;;;;;4971591;28;20556;-70
2023/02/20 02:54:05;;;;;;;5.13;3.63;;;8.30;99.90;;;;;;4970369;28;20475;-69
2023/02/20 02:56:39;;;;;;;7.30;3.90;;;8.20;99.90;;;;;;4962468;28;20467;-70
2023/02/20 02:59:08;;;;;;;4.90;4.27;;;8.20;99.90;;;;;;4964896;28;20448;-69
2023/02/20 03:01:38;;;;;;;4.70;3.83;;;8.20;99.90;;;;;;4974518;28;20474;-71
2023/02/20 03:04:06;;;;;;;4.90;3.40;;;8.10;99.90;;;;;;4973827;28;20447;-69
2023/02/20 03:06:37;;;;;;;6.37;3.90;;;8.10;99.90;;;;;;4975818;28;20443;-70
2023/02/20 03:09:29;;;;;;;5.77;3.60;;;8.10;99.90;;;;;;4975357;28;20852;-70
2023/02/20 03:11:57;;;;;;;5.23;4.57;;;8.10;99.90;;;;;;4968163;28;20475;-70
2023/02/20 03:17:38;;;;;;;10.30;4.30;;;8.00;99.90;;;;;;4971363;28;21071;-70
2023/02/20 03:20:13;;;;;;;6.10;3.43;;;8.00;99.90;;;;;;4975161;28;20470;-70
2023/02/20 03:23:08;;;;;;;9.50;3.60;;;7.90;99.90;;;;;;4974203;28;20534;-70
2023/02/20 03:25:39;;;;;;;9.00;3.43;;;7.90;99.90;;;;;;4973507;28;20478;-70
2023/02/20 03:28:08;;;;;;;5.63;4.17;;;7.90;99.90;;;;;;4972985;28;20435;-71
2023/02/20 03:30:41;;;;;;;5.10;3.77;;;7.90;99.90;;;;;;4971796;28;20459;-70
2023/02/20 03:44:21;;;;;;;5.53;4.00;;;7.90;99.90;;;;;;4974027;28;20442;-70
2023/02/20 03:46:48;;;;;;;8.10;4.70;;;7.80;99.90;;;;;;4977132;28;20450;-70
2023/02/20 03:49:19;;;;;;;6.07;3.90;;;7.80;99.90;;;;;;4974472;28;20466;-69
2023/02/20 03:51:44;;;;;;;6.07;3.83;;;7.80;99.90;;;;;;4971747;28;20510;-69
2023/02/20 03:54:15;;;;;;;7.17;4.20;;;7.70;99.90;;;;;;4974399;28;20435;-69
2023/02/20 03:56:44;;;;;;;7.80;4.20;;;7.70;99.90;;;;;;4974046;28;20192;-70
2023/02/20 03:59:20;;;;;;;5.10;4.20;;;7.70;99.90;;;;;;4974569;28;20449;-69
2023/02/20 04:01:49;;;;;;;4.90;4.00;;;7.70;99.90;;;;;;4974221;28;20467;-70
2023/02/20 04:04:27;;;;;;;8.50;5.27;;;7.60;99.90;;;;;;4975440;28;20519;-70
2023/02/20 04:06:53;;;;;;;4.23;3.70;;;7.50;99.90;;;;;;4973319;28;20807;-69
2023/02/20 04:09:24;;;;;;;6.67;4.70;;;7.40;99.90;;;;;;4975135;28;20423;-69
2023/02/20 04:12:10;;;;;;;5.60;3.70;;;7.40;99.90;;;;;;4973643;28;20463;-70
2023/02/20 04:14:37;;;;;;;6.80;4.00;;;7.30;99.90;;;;;;4972858;28;20467;-70
2023/02/20 04:17:08;;;;;;;6.63;4.93;;;7.30;99.90;;;;;;4974428;28;20467;-69
2023/02/20 04:19:34;;;;;;;9.80;4.90;;;7.20;99.90;;;;;;4974221;28;20601;-69
2023/02/20 04:22:03;;;;;;;5.00;4.30;;;7.10;99.90;;;;;;4973335;28;20467;-69
2023/02/20 04:24:51;;;;;;;7.67;4.40;;;7.00;99.90;;;;;;4973853;28;20561;-70
2023/02/20 04:27:17;;;;;;;6.43;5.07;;;7.00;99.90;;;;;;4966159;28;20436;-70
2023/02/20 04:29:43;;;;;;;7.17;4.73;;;7.00;99.90;;;;;;4971840;28;20451;-69
2023/02/20 04:32:09;;;;;;;4.50;4.10;;;6.90;99.90;;;;;;4974492;28;20463;-69
2023/02/20 04:34:34;;;;;;;7.07;4.23;;;6.90;99.90;;;;;;4973690;28;20297;-70
2023/02/20 04:37:09;;;;;;;10.70;4.53;;;6.80;99.90;;;;;;4972811;28;20957;-69
2023/02/20 04:39:35;;;;;;;11.53;4.77;;;6.80;99.90;;;;;;4973909;28;20237;-69
2023/02/20 04:42:00;;;;;;;5.17;3.83;;;6.80;99.90;;;;;;4966268;28;20550;-69
2023/02/20 04:44:33;;;;;;;11.87;4.40;;;6.70;99.90;;;;;;4974100;28;20184;-70
2023/02/20 04:47:04;;;;;;;6.03;4.47;;;6.70;99.90;;;;;;4967635;28;20191;-70
2023/02/20 04:49:30;;;;;;;6.80;3.57;;;6.70;99.90;;;;;;4972113;28;20471;-70
2023/02/20 04:51:56;;;;;;;7.30;3.77;;;6.70;99.90;;;;;;4974203;28;20794;-69
2023/02/20 04:54:22;;;;;;;7.13;4.47;;;6.60;99.90;;;;;;4973925;28;20463;-69
2023/02/20 04:56:48;;;;;;;7.70;4.30;;;6.60;99.90;;;;;;4972749;28;20211;-70
2023/02/20 04:59:13;;;;;;;7.10;4.60;;;6.60;99.90;;;;;;4972286;28;20448;-70
2023/02/20 05:01:40;;;;;;;6.50;5.07;;;6.60;99.90;;;;;;4974457;28;20733;-70
2023/02/20 05:04:06;;;;;;;8.17;5.50;;;6.60;99.90;;;;;;4974117;28;20175;-70
2023/02/20 05:06:31;;;;;;;5.30;4.33;;;6.50;99.90;;;;;;4973114;28;20435;-70
2023/02/20 05:08:57;;;;;;;7.23;4.20;;;6.50;99.90;;;;;;4971865;28;20740;-69
2023/02/20 05:11:23;;;;;;;14.40;7.57;;;6.50;99.90;;;;;;4961491;28;20196;-69
2023/02/20 05:13:49;;;;;;;7.10;4.80;;;6.50;99.90;;;;;;4973229;28;20486;-70
2023/02/20 05:16:14;;;;;;;5.50;4.37;;;6.50;99.90;;;;;;4972537;28;20239;-69
2023/02/20 05:18:40;;;;;;;14.80;5.07;;;6.40;99.90;;;;;;4972529;28;20184;-69
2023/02/20 05:23:49;;;;;;;7.07;4.43;;;6.30;99.90;;;;;;4972389;28;20229;-70
2023/02/20 05:26:19;;;;;;;9.23;4.60;;;6.30;99.90;;;;;;4972860;28;20451;-69
2023/02/20 05:28:45;;;;;;;7.83;5.03;;;6.30;99.90;;;;;;4971957;28;20267;-70
2023/02/20 05:31:11;;;;;;;6.50;4.77;;;6.30;99.90;;;;;;4971642;28;20553;-69
2023/02/20 05:33:36;;;;;;;9.13;6.03;;;6.20;99.90;;;;;;4972572;28;21733;-69
2023/02/20 05:36:02;;;;;;;9.83;6.27;;;6.20;99.90;;;;;;4972462;28;20466;-69
2023/02/20 05:38:28;;;;;;;14.30;5.97;;;6.20;99.90;;;;;;4972750;28;21084;-69
2023/02/20 05:40:53;;;;;;;8.80;5.03;;;6.20;99.90;;;;;;4973381;28;20883;-70
2023/02/20 05:43:19;;;;;;;7.97;5.13;;;6.20;99.90;;;;;;4973142;28;20185;-70
2023/02/20 05:45:44;;;;;;;8.70;5.93;;;6.10;99.90;;;;;;4972467;28;20194;-69
2023/02/20 05:48:13;;;;;;;7.47;5.60;;;6.10;99.90;;;;;;4972328;28;20196;-70
2023/02/20 05:50:39;;;;;;;10.47;6.57;;;6.10;99.90;;;;;;4971050;28;20231;-69
2023/02/20 05:53:05;;;;;;;6.00;5.37;;;6.10;99.90;;;;;;4971509;28;20559;-69
2023/02/20 05:55:31;;;;;;;10.93;6.27;;;6.00;99.90;;;;;;4971352;28;20491;-70
2023/02/20 05:57:56;;;;;;;8.70;5.50;;;6.10;99.90;;;;;;4966904;28;20236;-70
2023/02/20 06:00:22;;;;;;;6.13;4.80;;;6.00;99.90;;;;;;4967578;28;20219;-70
2023/02/20 06:02:49;;;;;;;14.07;5.10;;;6.00;99.90;;;;;;4969331;28;20264;-69
2023/02/20 06:05:15;;;;;;;6.43;4.60;;;6.00;99.90;;;;;;4969456;28;20907;-70
2023/02/20 06:07:45;;;;;;;14.10;7.07;;;6.00;99.90;;;;;;4969542;28;20443;-69
2023/02/20 06:10:10;;;;;;;7.33;6.60;;;6.00;99.90;;;;;;4969107;28;20464;-69
2023/02/20 06:12:36;;;;;;;8.00;6.70;;;5.90;99.90;;;;;;4972780;28;20773;-69
2023/02/20 06:15:02;;;;;;;9.23;5.73;;;5.90;99.90;;;;;;4972211;28;20180;-69
2023/02/20 06:17:29;;;;;;;8.93;6.03;;;5.90;99.90;;;;;;4969202;28;20215;-70
2023/02/20 06:19:54;;;;;;;11.30;5.50;;;5.90;99.90;;;;;;4971541;28;20230;-69
2023/02/20 06:22:20;;;;;;;6.97;5.67;;;5.90;99.90;;;;;;4969899;28;20440;-70
2023/02/20 06:24:47;;;;;;;12.10;6.50;;;5.90;99.90;;;;;;4971440;28;20212;-70
2023/02/20 06:27:14;;;;;;;8.90;5.37;;;5.90;99.90;;;;;;4972181;28;20191;-69
2023/02/20 06:29:39;;;;;;;8.90;5.10;;;5.90;99.90;;;;;;4970796;28;20462;-69
2023/02/20 06:32:05;;;;;;;7.93;5.20;;;5.90;99.90;;;;;;4972437;28;20993;-69
2023/02/20 06:34:32;;;;;;;11.33;5.73;;;5.90;99.90;;;;;;4972719;28;20190;-70
2023/02/20 06:36:59;;;;;;;8.63;5.60;;;5.90;99.90;;;;;;4971269;28;20235;-69
2023/02/20 06:39:24;;;;;;;11.40;5.87;;;6.00;99.90;;;;;;4968988;28;20497;-70
2023/02/20 06:41:50;;;;;;;11.93;5.20;;;6.00;99.90;;;;;;4971809;28;20467;-70
2023/02/20 06:44:15;;;;;;;6.77;5.47;;;6.00;99.90;;;;;;4972019;28;20517;-69
2023/02/20 06:46:41;;;;;;;9.00;5.30;;;6.00;99.90;;;;;;4971867;28;20184;-69
2023/02/20 06:49:06;;;;;;;13.00;6.40;;;6.00;99.90;;;;;;4968704;28;20207;-69
2023/02/20 06:51:33;;;;;;;7.30;5.03;;;5.90;99.90;;;;;;4969786;28;20247;-69
2023/02/20 06:54:00;;;;;;;7.73;5.53;;;6.00;99.90;;;;;;4969480;28;20184;-69
2023/02/20 06:56:31;;;;;;;6.97;5.10;;;6.00;99.90;;;;;;4967263;28;20483;-69
2023/02/20 06:58:57;;;;;;;6.43;5.37;;;6.00;99.90;;;;;;4966530;28;20475;-69
2023/02/20 07:01:27;;;;;;;9.73;6.30;;;6.10;99.90;;;;;;4972250;28;20513;-69
2023/02/20 07:03:54;;;;;;;10.00;5.23;;;6.20;99.90;;;;;;4971883;28;20443;-69
2023/02/20 07:06:22;;;;;;;9.23;5.93;;;6.30;99.90;;;;;;4970228;28;20472;-69
2023/02/20 07:08:47;;;;;;;7.10;4.40;;;6.50;99.90;;;;;;4970564;28;20439;-69
2023/02/20 07:11:15;;;;;;;6.53;5.00;;;6.80;99.90;;;;;;4969248;28;20491;-69
2023/02/20 07:13:40;;;;;;;9.00;5.60;;;7.00;99.90;;;;;;4971283;28;20439;-69
2023/02/20 07:16:06;;;;;;;8.23;4.80;;;7.30;99.90;;;;;;4971524;28;20829;-69
2023/02/20 07:18:32;;;;;;;8.43;4.43;;;7.50;99.90;;;;;;4968817;28;20195;-69
2023/02/20 07:20:57;;;;;;;8.30;4.07;;;7.70;99.90;;;;;;4970693;28;20583;-69
2023/02/20 07:23:23;;;;;;;6.97;5.27;;;7.90;99.90;;;;;;4970818;28;20191;-68
2023/02/20 07:25:49;;;;;;;9.10;4.57;;;8.10;99.90;;;;;;4970750;28;20216;-70
2023/02/20 07:28:17;;;;;;;5.93;5.07;;;8.30;99.90;;;;;;4968190;28;20192;-69
2023/02/20 07:30:43;;;;;;;7.07;4.60;;;8.40;99.90;;;;;;4970778;28;20883;-69
2023/02/20 07:33:09;;;;;;;5.87;3.93;;;8.50;99.90;;;;;;4971455;28;20482;-67
2023/02/20 07:35:35;;;;;;;6.80;3.83;;;8.50;99.90;;;;;;4967253;28;20470;-67
2023/02/20 07:38:00;;;;;;;8.50;4.27;;;8.50;99.90;;;;;;4967777;28;20439;-67
2023/02/20 07:40:26;;;;;;;6.30;4.40;;;8.60;99.90;;;;;;4969419;28;20210;-67
2023/02/20 07:42:51;;;;;;;7.47;4.93;;;8.70;99.90;;;;;;4970760;28;20264;-67
2023/02/20 07:45:17;;;;;;;9.20;4.57;;;8.80;99.90;;;;;;4970411;28;20537;-67
2023/02/20 07:47:43;;;;;;;6.40;5.07;;;8.90;99.90;;;;;;4972921;28;20666;-68
2023/02/20 07:50:08;;;;;;;6.90;4.07;;;9.00;99.90;;;;;;4973111;28;20291;-67
2023/02/20 07:52:34;;;;;;;6.07;4.90;;;9.30;99.90;;;;;;4973826;28;20180;-67
2023/02/20 07:54:59;;;;;;;4.90;3.60;;;9.60;99.90;;;;;;4974695;28;20531;-67
2023/02/20 07:57:25;;;;;;;9.30;4.37;;;9.80;99.90;;;;;;4972114;28;20203;-67
2023/02/20 07:59:50;;;;;;;5.90;4.20;;;9.90;99.90;;;;;;4970382;28;20204;-68
2023/02/20 08:02:16;;;;;;;6.20;4.17;;;9.90;99.90;;;;;;4974746;28;20184;-67
2023/02/20 08:04:41;;;;;;;3.90;3.57;;;10.00;99.90;;;;;;4974032;28;20188;-67
2023/02/20 08:07:07;;;;;;;7.63;3.83;;;10.30;99.90;;;;;;4973273;28;20235;-68
2023/02/20 08:09:32;;;;;;;7.00;3.80;;;10.50;99.90;;;;;;4970331;28;20180;-68
2023/02/20 08:11:58;;;;;;;11.20;4.10;;;10.60;99.90;;;;;;4973008;28;20219;-67
2023/02/20 08:14:23;;;;;;;4.70;3.60;;;10.80;99.90;;;;;;4973215;28;20259;-67
2023/02/20 08:16:49;;;;;;;6.60;3.87;;;11.10;99.90;;;;;;4970243;28;20212;-67
2023/02/20 08:19:15;;;;;;;9.03;4.53;;;11.40;99.90;;;;;;4971092;28;20191;-68
2023/02/20 08:21:40;;;;;;;5.43;3.67;;;11.60;99.90;;;;;;4973343;28;20196;-67
2023/02/20 08:24:06;;;;;;;4.90;3.40;;;11.80;99.90;;;;;;4971161;28;20251;-67
2023/02/20 08:26:35;;;;;;;6.70;4.40;;;11.80;99.90;;;;;;4970672;28;20194;-68
2023/02/20 08:29:01;;;;;;;4.43;3.07;;;12.00;99.90;;;;;;4971689;28;20261;-67
2023/02/20 08:31:27;;;;;;;5.73;4.30;;;12.10;99.90;;;;;;4971067;28;20606;-68
2023/02/20 08:33:53;;;;;;;10.57;4.40;;;12.20;99.90;;;;;;4972601;28;20183;-68
2023/02/20 08:36:18;;;;;;;4.67;3.50;;;12.40;99.90;;;;;;4970221;28;20460;-68
2023/02/20 08:38:44;;;;;;;5.60;4.30;;;12.70;99.90;;;;;;4971793;28;20187;-67
2023/02/20 08:41:11;;;;;;;8.93;4.23;;;12.90;99.90;;;;;;4970606;28;20275;-68
2023/02/20 08:43:38;;;;;;;5.60;4.20;;;13.20;99.90;;;;;;4971151;28;20535;-68
2023/02/20 08:46:05;;;;;;;7.00;3.20;;;13.30;99.90;;;;;;4966611;28;20471;-68
2023/02/20 08:48:31;;;;;;;5.57;4.47;;;13.80;99.90;;;;;;4973511;28;20502;-68
2023/02/20 08:50:57;;;;;;;5.10;3.80;;;14.60;99.90;;;;;;4972893;28;20459;-68
2023/02/20 08:53:22;;;;;;;6.37;4.40;;;14.50;99.90;;;;;;4972192;28;20454;-68
2023/02/20 08:55:48;;;;;;;4.40;3.67;;;14.50;99.90;;;;;;4973865;28;20208;-69
2023/02/20 08:58:18;;;;;;;5.67;3.37;;;15.20;99.90;;;;;;4972202;28;20421;-67
2023/02/20 09:00:43;;;;;;;5.40;3.47;;;15.20;99.90;;;;;;4969821;28;20263;-69
2023/02/20 09:03:09;;;;;;;5.80;3.23;;;15.10;99.90;;;;;;4971936;28;20435;-67
2023/02/20 09:05:35;;;;;;;5.30;3.37;;;14.90;99.90;;;;;;4970361;28;20235;-69
2023/02/20 09:08:02;;;;;;;4.57;3.30;;;15.50;99.90;;;;;;4972691;28;20192;-68
2023/02/20 09:10:27;;;;;;;6.80;3.80;;;15.50;99.90;;;;;;4967801;28;20494;-67
2023/02/20 09:12:53;;;;;;;6.23;3.30;;;15.30;99.90;;;;;;4972680;28;21007;-68
2023/02/20 09:15:18;;;;;;;6.10;4.10;;;15.70;99.90;;;;;;4971175;28;20549;-68
2023/02/20 09:17:48;;;;;;;4.17;3.40;;;15.70;99.30;;;;;;4972538;28;20191;-69
2023/02/20 09:20:14;;;;;;;4.97;3.00;;;16.40;98.20;;;;;;4969805;28;20204;-68
2023/02/20 09:22:40;;;;;;;9.70;3.47;;;16.90;96.30;;;;;;4973549;28;20448;-68
2023/02/20 09:25:06;;;;;;;5.80;3.37;;;16.40;96.60;;;;;;4973186;28;20477;-68
2023/02/20 09:27:32;;;;;;;7.60;3.47;;;16.70;96.50;;;;;;4971896;28;20188;-69
2023/02/20 09:29:58;;;;;;;5.63;4.13;;;17.10;94.50;;;;;;4970184;28;20932;-68
2023/02/20 09:32:24;;;;;;;8.40;4.00;;;17.20;94.30;;;;;;4972736;28;20494;-68
2023/02/20 09:34:49;;;;;;;7.17;4.47;;;17.40;93.50;;;;;;4971531;28;22088;-68
2023/02/20 09:37:15;;;;;;;7.70;3.77;;;18.10;92.10;;;;;;4971348;28;20223;-68
2023/02/20 09:39:40;;;;;;;12.80;3.30;;;18.40;90.20;;;;;;4970894;28;20245;-68
2023/02/20 09:42:28;;;;;;;4.97;3.27;;;19.40;87.80;;;;;;4970621;28;20199;-68
2023/02/20 09:45:16;;;;;;;6.33;2.93;;;19.20;82.80;;;;;;4971012;28;20192;-68
2023/02/20 09:48:04;;;;;;;4.70;3.40;;;18.90;83.30;;;;;;4969133;28;20542;-68
2023/02/20 09:50:53;;;;;;;5.67;3.40;;;19.30;80.80;;;;;;4968203;28;20574;-68
2023/02/20 09:53:56;;;;;;;5.40;3.70;;;19.40;79.80;;;;;;4969995;28;20432;-68
2023/02/20 09:56:29;;;;;;;6.43;3.20;;;18.90;80.90;;;;;;4967620;28;21002;-69
2023/02/20 09:59:15;;;;;;;4.50;3.33;;;18.30;82.40;;;;;;4969828;28;20444;-68
2023/02/20 10:01:56;;;;;;;5.30;3.00;;;19.20;82.00;;;;;;4967738;28;20992;-69
2023/02/20 10:04:27;;;;;;;6.27;3.23;;;20.50;76.40;;;;;;4972297;28;20517;-68
2023/02/20 10:07:03;;;;;;;3.23;2.77;;;20.30;75.30;;;;;;4971100;28;20873;-69
2023/02/20 10:09:28;;;;;;;3.23;2.70;;;20.90;73.40;;;;;;4970376;28;20474;-68
2023/02/20 10:12:17;;;;;;;3.93;2.83;;;19.70;72.30;;;;;;4971150;28;20499;-68
2023/02/20 10:15:02;;;;;;;4.83;3.70;;;18.40;78.50;;;;;;4972371;28;20215;-67
2023/02/20 10:17:52;;;;;;;4.50;3.10;;;17.90;79.30;;;;;;4968369;28;20598;-70
2023/02/20 10:20:45;;;;;;;4.27;3.20;;;17.00;83.50;;;;;;4970292;28;20470;-74
2023/02/20 10:23:34;;;;;;;6.00;2.93;;;16.90;86.80;;;;;;4970313;28;20458;-75
2023/02/20 10:26:05;;;;;;;4.03;3.10;;;18.80;82.90;;;;;;4971264;28;20439;-75
2023/02/20 10:28:32;;;;;;;5.27;3.80;;;19.60;78.60;;;;;;4966459;28;20952;-75
2023/02/20 10:31:05;;;;;;;9.13;3.53;;;20.00;74.80;;;;;;4970885;28;20474;-69
2023/02/20 10:33:45;;;;;;;4.83;3.10;;;18.60;78.10;;;;;;4971338;28;20510;-69
2023/02/20 10:36:21;;;;;;;6.80;2.70;;;18.10;79.40;;;;;;4969138;28;20451;-68
2023/02/20 10:39:10;;;;;;;11.07;4.30;;;18.90;78.30;;;;;;4968231;28;20956;-69
2023/02/20 10:41:59;;;;;;;11.40;3.50;;;20.50;74.80;;;;;;4968217;28;20586;-68
2023/02/20 10:44:28;;;;;;;6.20;3.40;;;22.00;69.10;;;;;;4970723;28;20443;-69
2023/02/20 10:47:05;;;;;;;3.80;2.63;;;22.50;64.70;;;;;;4970921;28;20450;-68
2023/02/20 10:49:39;;;;;;;7.37;2.80;;;25.30;59.50;;;;;;4970977;28;20526;-69
2023/02/20 10:52:09;;;;;;;3.97;3.03;;;25.80;53.70;;;;;;4970189;28;20501;-68
2023/02/20 10:54:37;;;;;;;3.70;2.60;;;27.10;51.00;;;;;;4969235;28;20532;-69
2023/02/20 10:57:12;;;;;;;2.67;2.47;;;26.70;47.50;;;;;;4969494;28;20525;-69
2023/02/20 11:00:01;;;;;;;4.73;3.13;;;25.70;48.60;;;;;;4967801;28;20463;-69
2023/02/20 11:02:32;;;;;;;4.90;3.47;;;25.20;49.20;;;;;;4971815;28;20450;-68
2023/02/20 11:05:04;;;;;;;7.47;3.70;;;24.70;49.20;;;;;;4966877;28;20435;-68
2023/02/20 11:07:30;;;;;;;6.77;3.10;;;24.30;49.00;;;;;;4970506;28;20518;-67
2023/02/20 11:09:55;;;;;;;4.23;3.13;;;23.60;50.60;;;;;;4970901;28;20526;-68
2023/02/20 11:12:28;;;;;;;6.07;2.73;;;23.60;50.60;;;;;;4969460;28;20200;-68
2023/02/20 11:14:57;;;;;;;4.47;2.90;;;23.80;50.10;;;;;;4971206;28;20271;-68
2023/02/20 11:17:25;;;;;;;3.43;3.03;;;23.50;50.40;;;;;;4970797;28;20518;-67
2023/02/20 11:19:52;;;;;;;5.67;3.00;;;24.30;49.80;;;;;;4968624;28;20949;-68
2023/02/20 11:22:39;;;;;;;6.37;3.10;;;25.20;48.60;;;;;;4970603;28;20968;-68
2023/02/20 11:25:20;;;;;;;20.20;3.67;;;25.60;47.90;;;;;;4975510;28;20463;-68
2023/02/20 11:28:07;;;;;;;7.33;3.67;;;25.80;46.30;;;;;;4973981;28;20443;-73
2023/02/20 11:30:39;;;;;;;6.30;3.80;;;25.20;47.00;;;;;;4973116;28;20459;-68
2023/02/20 11:33:08;;;;;;;12.83;3.50;;;24.00;47.90;;;;;;4970924;28;20994;-68
2023/02/20 11:35:37;;;;;;;3.47;2.70;;;23.90;48.30;;;;;;4976815;28;20450;-68
2023/02/20 11:38:18;;;;;;;5.10;3.10;;;23.90;47.60;;;;;;4975167;28;20454;-68
2023/02/20 11:41:02;;;;;;;5.00;3.90;;;24.60;47.70;;;;;;4972745;28;20798;-68
2023/02/20 11:43:35;;;;;;;3.20;2.80;;;25.80;46.70;;;;;;4969661;28;20526;-68
2023/02/20 11:46:22;;;;;;;3.17;2.90;;;26.40;45.00;;;;;;4967612;28;20960;-67
2023/02/20 11:48:57;;;;;;;4.00;3.10;;;25.50;45.50;;;;;;4973183;28;20501;-68
2023/02/20 11:51:37;;;;;;;3.17;2.47;;;26.90;44.80;;;;;;4973901;28;20470;-67
2023/02/20 11:54:20;;;;;;;2.80;1.93;;;26.90;43.70;;;;;;4974759;28;20446;-67
2023/02/20 11:57:14;;;;;;;2.57;2.37;;;27.20;43.00;;;;;;4974040;28;20471;-68
2023/02/20 11:59:45;;;;;;;1.77;1.63;;;28.40;40.70;;;;;;4970932;28;20443;-67
2023/02/20 12:02:16;;;;;;;4.57;2.53;;;29.40;39.80;;;;;;4973428;28;20467;-67
2023/02/20 12:05:07;;;;;;;2.60;1.77;;;27.90;39.40;;;;;;4973813;28;20435;-67
2023/02/20 12:07:35;;;;;;;4.40;3.20;;;26.70;41.30;;;;;;4972555;28;20953;-67
2023/02/20 12:10:31;;;;;;;6.50;2.17;;;27.20;41.20;;;;;;4974597;28;21003;-69
2023/02/20 12:12:57;;;;;;;4.70;1.80;;;28.70;39.60;;;;;;4970541;28;20440;-68
2023/02/20 12:15:25;;;;;;;4.73;2.53;;;30.70;37.90;;;;;;4973434;28;20921;-68
2023/02/20 12:18:06;;;;;;;3.50;1.67;;;31.90;36.00;;;;;;4972114;28;20548;-67
2023/02/20 12:20:36;;;;;;;2.60;1.90;;;31.50;34.70;;;;;;4973259;28;20826;-69
2023/02/20 12:23:21;;;;;;;4.00;2.00;;;30.80;34.50;;;;;;4965261;28;20490;-68
2023/02/20 12:25:58;;;;;;;6.50;2.00;;;29.50;34.50;;;;;;4972611;28;20855;-68
2023/02/20 12:28:52;;;;;;;2.03;1.53;;;29.30;35.70;;;;;;4973638;28;20449;-68
2023/02/20 12:31:36;;;;;;;3.57;1.97;;;30.80;34.40;;;;;;4968995;28;20466;-67
2023/02/20 12:34:34;;;;;;;2.60;2.40;;;33.50;32.20;;;;;;4972847;28;20514;-68
2023/02/20 12:37:20;;;;;;;2.23;2.00;;;34.60;30.70;;;;;;4968442;28;21001;-68
2023/02/20 12:40:00;;;;;;;3.80;2.50;;;32.40;30.00;;;;;;4972215;28;20884;-67
2023/02/20 12:42:31;;;;;;;4.63;1.70;;;32.30;30.90;;;;;;4973802;28;20816;-68
2023/02/20 12:45:21;;;;;;;2.90;2.60;;;31.60;30.60;;;;;;4970925;28;20444;-68
2023/02/20 12:48:00;;;;;;;6.13;2.97;;;30.70;30.80;;;;;;4973466;28;20824;-68
2023/02/20 12:50:47;;;;;;;4.20;3.33;;;30.50;31.50;;;;;;4972447;28;20518;-67
2023/02/20 12:53:29;;;;;;;1.63;1.40;;;30.80;31.50;;;;;;4972996;28;20522;-68
2023/02/20 12:56:01;;;;;;;2.57;1.60;;;33.10;30.10;;;;;;4972049;28;20522;-68
2023/02/20 12:58:35;;;;;;;2.53;1.43;;;33.80;29.50;;;;;;4971604;28;20471;-68
2023/02/20 13:01:04;;;;;;;6.60;5.10;;;33.60;28.50;;;;;;4970580;28;20510;-69
2023/02/20 13:03:44;;;;;;;2.83;2.10;;;32.90;28.60;;;;;;4970846;28;20534;-67
2023/02/20 13:06:17;;;;;;;1.97;1.27;;;31.50;29.20;;;;;;4974143;28;20460;-68
2023/02/20 13:09:02;;;;;;;2.83;1.80;;;30.80;29.30;;;;;;4973034;28;20439;-68
2023/02/20 13:11:35;;;;;;;2.07;1.40;;;29.90;30.40;;;;;;4973059;28;20834;-68
2023/02/20 13:14:12;;;;;;;2.80;1.50;;;31.30;29.20;;;;;;4972075;28;20423;-67
2023/02/20 13:16:50;;;;;;;1.37;1.27;;;33.40;28.70;;;;;;4970129;28;20488;-67
2023/02/20 13:19:25;;;;;;;2.30;1.50;;;33.20;28.10;;;;;;4972846;28;20439;-67
2023/02/20 13:21:58;;;;;;;1.70;1.40;;;33.80;28.00;;;;;;4972080;28;20454;-68
2023/02/20 13:24:30;;;;;;;3.87;1.80;;;33.50;28.00;;;;;;4972872;28;20587;-67
2023/02/20 13:27:05;;;;;;;1.40;1.30;;;35.30;27.10;;;;;;4972203;28;21027;-68
2023/02/20 13:29:36;;;;;;;1.30;1.10;;;35.20;26.50;;;;;;4970575;28;20442;-69
2023/02/20 13:32:27;;;;;;;2.50;1.30;;;33.50;26.60;;;;;;4966181;28;20455;-67